Airfield :
LOGIN :

Register | Disclaimer

   EN    FR    IT 

 










Legend :    VFR   Marginal VFR   IFR   Intensive IFR   Very Intensive IFR
Visi :
Ceiling :
>= 8 km
>= 3000ft
5 to 8 km
1000 to 3000 ft
1500m to 5 km
500 to 1000 ft
800 to 1500m
200 to 500 ft
< 800m
< 200 ft
Symbols :   Thunderstorms  Fog  Heavy snow  Heavy precipitations  Wind > 20 kt
SIGMETs :     Misc.  Thunderstorms  Icing  Turbulence  Mountain Waves  Volcanic Ashes







- Airport Elevation : 21 ft
- IATA code : VST


ESOW - Stockholm Västerås

CURRENT METAR :
  • 151220Z 24004KT 210V300 9999 FEW045 BKN061 19/12 Q1012

EXPIRED METARs :
  • 151150Z 24006KT 210V270 9999 FEW049 BKN063 19/11 Q1012
  • 151120Z 22006KT 9999 FEW031 BKN061 19/12 Q1012
  • 151050Z 21006KT 170V260 9999 FEW030 BKN060 19/11 Q1012
  • 151020Z 18004KT 130V230 9999 FEW030 BKN090 19/12 Q1011
  • 150950Z VRB02KT 9999 SCT027 BKN034 19/11 Q1011

TAF TAF ESOW
Valid from the 15 at 12:00 until the 15 at 17:00 UTC


151130Z 1512/1517 19005KT 9999 SCT040
No reported NOTAMs for that airfield.



MET'MAP, your aeronautical weather chart ! - Copyright ORBIFLY December 2007 - Disclaimer

ORBIFLY MET'MAP TEAM :

Programming & Development : Alexandra Zaïnal
Concept & Development : Baudouin d'Aumeries
Co-Development & Prog : Marc-Olivier Méhu
Technical & hardware support : Manuel Goepfert

Contact : metmap@orbifly.com




SOURCES & CREDITS :

   NOAA